Time,TemperatureF,DewpointF,PressureIn,WindDirection,WindDirectionDegrees,WindSpeedMPH,WindSpeedGustMPH,Humidity,HourlyPrecipIn,Conditions,Clouds,dailyrainin,SoftwareType,DateUTC
2013-08-15 00:00:00,53.8,52.4,30.21,ENE,64,0.0,5.0,95,0.00,,,0.00,Wunderground v.1.15,2013-08-15 05:00:00,
2013-08-15 00:05:00,53.6,52.2,30.20,ENE,64,0.0,5.0,95,0.00,,,0.00,Wunderground v.1.15,2013-08-15 05:05:00,
2013-08-15 00:10:00,53.6,52.2,30.21,ENE,64,0.0,5.0,95,0.00,,,0.00,Wunderground v.1.15,2013-08-15 05:10:00,
2013-08-15 00:15:00,53.5,52.1,30.21,ENE,64,0.0,5.0,95,0.00,,,0.00,Wunderground v.1.15,2013-08-15 05:15:00,
2013-08-15 00:25:00,53.3,51.9,30.21,ENE,64,0.0,5.0,95,0.00,,,0.00,Wunderground v.1.15,2013-08-15 05:25:00,
2013-08-15 00:30:00,53.2,51.8,30.21,ENE,64,0.0,5.0,95,0.00,,,0.00,Wunderground v.1.15,2013-08-15 05:30:00,
2013-08-15 00:35:00,53.0,51.6,30.21,ENE,64,0.0,5.0,95,0.00,,,0.00,Wunderground v.1.15,2013-08-15 05:35:00,
2013-08-15 00:40:00,53.0,51.6,30.21,ENE,64,0.0,5.0,95,0.00,,,0.00,Wunderground v.1.15,2013-08-15 05:40:00,
2013-08-15 00:45:00,52.9,51.5,30.20,ENE,64,0.0,5.0,95,0.00,,,0.00,Wunderground v.1.15,2013-08-15 05:45:00,
2013-08-15 00:50:00,52.9,51.8,30.20,ENE,64,0.0,5.0,96,0.00,,,0.00,Wunderground v.1.15,2013-08-15 05:50:00,
2013-08-15 01:00:00,52.7,51.6,30.20,ENE,64,0.0,5.0,96,0.00,,,0.00,Wunderground v.1.15,2013-08-15 06:00:00,
2013-08-15 01:05:00,52.6,51.2,30.20,ENE,64,0.0,5.0,95,0.00,,,0.00,Wunderground v.1.15,2013-08-15 06:05:00,
2013-08-15 01:10:00,52.5,51.4,30.20,ENE,64,0.0,5.0,96,0.00,,,0.00,Wunderground v.1.15,2013-08-15 06:10:00,
2013-08-15 01:15:00,52.6,51.5,30.20,ENE,64,0.0,5.0,96,0.00,,,0.00,Wunderground v.1.15,2013-08-15 06:15:00,
2013-08-15 01:25:00,52.4,51.3,30.20,ENE,64,0.0,5.0,96,0.00,,,0.00,Wunderground v.1.15,2013-08-15 06:25:00,
2013-08-15 01:30:00,52.3,51.2,30.19,ENE,64,0.0,5.0,96,0.00,,,0.00,Wunderground v.1.15,2013-08-15 06:30:00,
2013-08-15 01:35:00,52.4,51.3,30.19,ENE,64,0.0,5.0,96,0.00,,,0.00,Wunderground v.1.15,2013-08-15 06:35:00,
2013-08-15 01:40:00,52.4,51.6,30.20,ENE,64,0.0,5.0,97,0.00,,,0.00,Wunderground v.1.15,2013-08-15 06:40:00,
2013-08-15 01:45:00,52.4,51.3,30.19,ENE,64,0.0,5.0,96,0.00,,,0.00,Wunderground v.1.15,2013-08-15 06:45:00,
2013-08-15 01:50:00,52.4,51.3,30.19,ENE,64,0.0,5.0,96,0.00,,,0.00,Wunderground v.1.15,2013-08-15 06:50:00,
2013-08-15 01:55:00,52.3,51.2,30.19,ENE,64,0.0,5.0,96,0.00,,,0.00,Wunderground v.1.15,2013-08-15 06:55:00,
2013-08-15 02:05:00,52.5,51.7,30.19,ENE,64,0.0,5.0,97,0.00,,,0.00,Wunderground v.1.15,2013-08-15 07:05:00,
2013-08-15 02:10:00,52.5,51.7,30.19,ENE,64,0.0,5.0,97,0.00,,,0.00,Wunderground v.1.15,2013-08-15 07:10:00,
2013-08-15 02:15:00,52.6,51.8,30.19,ENE,64,0.0,5.0,97,0.00,,,0.00,Wunderground v.1.15,2013-08-15 07:15:00,
2013-08-15 02:20:00,52.6,51.8,30.19,ENE,64,0.0,5.0,97,0.00,,,0.00,Wunderground v.1.15,2013-08-15 07:20:00,
2013-08-15 02:25:00,52.6,51.8,30.19,ENE,64,0.0,5.0,97,0.00,,,0.00,Wunderground v.1.15,2013-08-15 07:25:00,
2013-08-15 02:35:00,52.8,52.0,30.19,ENE,64,0.0,5.0,97,0.00,,,0.00,Wunderground v.1.15,2013-08-15 07:35:00,
2013-08-15 02:40:00,52.9,52.1,30.19,ENE,64,0.0,5.0,97,0.00,,,0.00,Wunderground v.1.15,2013-08-15 07:40:00,
2013-08-15 02:45:00,53.0,52.2,30.19,ENE,64,0.0,5.0,97,0.00,,,0.00,Wunderground v.1.15,2013-08-15 07:45:00,
2013-08-15 02:50:00,53.1,52.3,30.19,ENE,64,0.0,5.0,97,0.00,,,0.00,Wunderground v.1.15,2013-08-15 07:50:00,
2013-08-15 02:55:00,53.2,52.4,30.19,ENE,64,0.0,5.0,97,0.00,,,0.00,Wunderground v.1.15,2013-08-15 07:55:00,
2013-08-15 03:00:00,53.2,52.4,30.19,ENE,64,0.0,5.0,97,0.00,,,0.00,Wunderground v.1.15,2013-08-15 08:00:00,
2013-08-15 03:10:00,53.3,52.5,30.19,ENE,64,0.0,5.0,97,0.00,,,0.00,Wunderground v.1.15,2013-08-15 08:10:00,
2013-08-15 03:15:00,53.3,52.5,30.19,ENE,64,0.0,5.0,97,0.00,,,0.00,Wunderground v.1.15,2013-08-15 08:15:00,
2013-08-15 03:20:00,53.3,52.5,30.19,ENE,64,0.0,5.0,97,0.00,,,0.00,Wunderground v.1.15,2013-08-15 08:20:00,
2013-08-15 07:30:00,55.1,54.5,30.20,ENE,64,0.0,0.0,98,0.00,,,0.01,Wunderground v.1.15,2013-08-15 12:30:00,
2013-08-15 07:35:00,55.5,54.9,30.20,ENE,64,0.0,0.0,98,0.00,,,0.01,Wunderground v.1.15,2013-08-15 12:35:00,
2013-08-15 07:40:00,56.2,55.6,30.20,ENE,64,0.0,0.0,98,0.00,,,0.01,Wunderground v.1.15,2013-08-15 12:40:00,
2013-08-15 07:45:00,56.5,55.9,30.20,ENE,64,0.0,0.0,98,0.00,,,0.01,Wunderground v.1.15,2013-08-15 12:45:00,
2013-08-15 07:50:00,56.8,56.2,30.21,ENE,64,0.0,0.0,98,0.00,,,0.01,Wunderground v.1.15,2013-08-15 12:50:00,
2013-08-15 08:00:00,57.1,56.3,30.21,ENE,64,0.0,0.0,97,0.00,,,0.01,Wunderground v.1.15,2013-08-15 13:00:00,
2013-08-15 08:05:00,57.5,56.7,30.21,ENE,64,0.0,0.0,97,0.00,,,0.01,Wunderground v.1.15,2013-08-15 13:05:00,
2013-08-15 08:10:00,57.7,56.9,30.21,ENE,64,0.0,0.0,97,0.00,,,0.01,Wunderground v.1.15,2013-08-15 13:10:00,
2013-08-15 08:15:00,58.1,57.3,30.21,ENE,64,0.0,0.0,97,0.00,,,0.01,Wunderground v.1.15,2013-08-15 13:15:00,
2013-08-15 08:20:00,58.4,57.3,30.21,ENE,64,0.0,0.0,96,0.00,,,0.01,Wunderground v.1.15,2013-08-15 13:20:00,
2013-08-15 08:25:00,58.6,57.5,30.22,ENE,64,0.0,0.0,96,0.00,,,0.01,Wunderground v.1.15,2013-08-15 13:25:00,
2013-08-15 08:35:00,59.0,57.3,30.22,ENE,64,0.0,0.0,94,0.00,,,0.01,Wunderground v.1.15,2013-08-15 13:35:00,
2013-08-15 08:40:00,59.3,57.3,30.22,ENE,64,0.0,0.0,93,0.00,,,0.01,Wunderground v.1.15,2013-08-15 13:40:00,
2013-08-15 08:45:00,59.6,57.3,30.22,ENE,64,0.0,0.0,92,0.00,,,0.01,Wunderground v.1.15,2013-08-15 13:45:00,
2013-08-15 08:50:00,59.9,57.3,30.22,ENE,64,0.0,0.0,91,0.00,,,0.01,Wunderground v.1.15,2013-08-15 13:50:00,
2013-08-15 08:55:00,60.4,58.1,30.22,ENE,64,0.0,0.0,92,0.00,,,0.01,Wunderground v.1.15,2013-08-15 13:55:00,
2013-08-15 09:05:00,61.3,58.7,30.21,ENE,64,0.0,0.0,91,0.00,,,0.01,Wunderground v.1.15,2013-08-15 14:05:00,
2013-08-15 09:10:00,61.7,58.7,30.22,ENE,64,0.0,0.0,90,0.00,,,0.01,Wunderground v.1.15,2013-08-15 14:10:00,
2013-08-15 09:15:00,62.1,58.5,30.22,ENE,64,0.0,0.0,88,0.00,,,0.01,Wunderground v.1.15,2013-08-15 14:15:00,
2013-08-15 09:20:00,62.6,58.7,30.22,ENE,64,0.0,0.0,87,0.00,,,0.01,Wunderground v.1.15,2013-08-15 14:20:00,
2013-08-15 09:25:00,62.9,58.3,30.22,ENE,64,0.0,0.0,85,0.00,,,0.01,Wunderground v.1.15,2013-08-15 14:25:00,
2013-08-15 09:30:00,63.2,58.3,30.22,ENE,64,0.0,0.0,84,0.00,,,0.01,Wunderground v.1.15,2013-08-15 14:30:00,
2013-08-15 09:35:00,63.6,58.7,30.22,ENE,64,0.0,0.0,84,0.00,,,0.01,Wunderground v.1.15,2013-08-15 14:35:00,
2013-08-15 09:40:00,63.9,58.6,30.22,ENE,64,0.0,0.0,83,0.00,,,0.01,Wunderground v.1.15,2013-08-15 14:40:00,
2013-08-15 09:45:00,64.3,59.4,30.22,ENE,64,0.0,0.0,84,0.00,,,0.01,Wunderground v.1.15,2013-08-15 14:45:00,
2013-08-15 09:50:00,64.8,58.8,30.22,ENE,64,0.0,0.0,81,0.00,,,0.01,Wunderground v.1.15,2013-08-15 14:50:00,
2013-08-15 10:00:00,66.0,58.2,30.22,South,185,0.0,3.0,76,0.00,,,0.01,Wunderground v.1.15,2013-08-15 15:00:00,
2013-08-15 10:10:00,66.9,59.5,30.22,South,185,0.0,0.0,77,0.00,,,0.01,Wunderground v.1.15,2013-08-15 15:10:00,
2013-08-15 10:25:00,67.7,58.7,30.23,SSW,196,0.0,0.0,73,0.00,,,0.01,Wunderground v.1.15,2013-08-15 15:25:00,
2013-08-15 10:30:00,67.9,58.5,30.23,SSW,196,0.0,0.0,72,0.00,,,0.01,Wunderground v.1.15,2013-08-15 15:30:00,
2013-08-15 10:35:00,68.2,59.2,30.23,SSW,196,0.0,0.0,73,0.00,,,0.01,Wunderground v.1.15,2013-08-15 15:35:00,
2013-08-15 10:45:00,68.5,59.1,30.22,SSW,207,1.0,1.0,72,0.00,,,0.01,Wunderground v.1.15,2013-08-15 15:45:00,
2013-08-15 10:50:00,68.6,59.6,30.22,SSW,207,0.0,0.0,73,0.00,,,0.01,Wunderground v.1.15,2013-08-15 15:50:00,
2013-08-15 10:55:00,68.7,58.9,30.22,SSW,207,0.0,0.0,71,0.00,,,0.01,Wunderground v.1.15,2013-08-15 15:55:00,
2013-08-15 11:00:00,68.8,58.2,30.22,SSW,207,0.0,0.0,69,0.00,,,0.01,Wunderground v.1.15,2013-08-15 16:00:00,
2013-08-15 11:05:00,68.8,58.2,30.22,SW,216,0.0,0.0,69,0.00,,,0.01,Wunderground v.1.15,2013-08-15 16:05:00,
2013-08-15 11:15:00,69.2,57.8,30.22,West,265,0.0,3.0,67,0.00,,,0.01,Wunderground v.1.15,2013-08-15 16:15:00,
2013-08-15 11:20:00,69.8,56.6,30.21,West,259,1.0,3.0,63,0.00,,,0.01,Wunderground v.1.15,2013-08-15 16:20:00,
2013-08-15 11:25:00,70.3,56.2,30.21,NW,312,1.0,3.0,61,0.00,,,0.01,Wunderground v.1.15,2013-08-15 16:25:00,
2013-08-15 11:30:00,70.8,56.7,30.21,SW,234,1.0,1.0,61,0.00,,,0.01,Wunderground v.1.15,2013-08-15 16:30:00,
2013-08-15 11:35:00,71.1,57.0,30.21,SW,223,1.0,1.0,61,0.00,,,0.01,Wunderground v.1.15,2013-08-15 16:35:00,
2013-08-15 11:40:00,71.7,58.4,30.21,SSW,192,0.0,0.0,63,0.00,,,0.01,Wunderground v.1.15,2013-08-15 16:40:00,
2013-08-15 11:50:00,72.2,57.5,30.20,NE,53,1.0,1.0,60,0.00,,,0.01,Wunderground v.1.15,2013-08-15 16:50:00,
2013-08-15 11:55:00,72.5,58.3,30.20,NE,50,1.0,1.0,61,0.00,,,0.01,Wunderground v.1.15,2013-08-15 16:55:00,
2013-08-15 12:00:00,72.9,58.2,30.20,NE,44,1.0,1.0,60,0.00,,,0.01,Wunderground v.1.15,2013-08-15 17:00:00,
2013-08-15 12:05:00,73.4,57.7,30.20,NE,38,1.0,1.0,58,0.00,,,0.01,Wunderground v.1.15,2013-08-15 17:05:00,
2013-08-15 12:10:00,73.7,57.5,30.20,NE,38,0.0,0.0,57,0.00,,,0.01,Wunderground v.1.15,2013-08-15 17:10:00,
2013-08-15 12:30:00,74.4,55.6,30.19,NE,34,1.0,1.0,52,0.00,,,0.01,Wunderground v.1.15,2013-08-15 17:30:00,
2013-08-15 12:40:00,74.6,56.3,30.19,East,90,1.0,2.0,53,0.00,,,0.01,Wunderground v.1.15,2013-08-15 17:40:00,
2013-08-15 12:45:00,74.7,57.5,30.19,ENE,65,1.0,2.0,55,0.00,,,0.01,Wunderground v.1.15,2013-08-15 17:45:00,
2013-08-15 12:50:00,74.7,57.5,30.19,South,179,1.0,1.0,55,0.00,,,0.01,Wunderground v.1.15,2013-08-15 17:50:00,
2013-08-15 13:00:00,74.5,55.2,30.18,SSE,148,1.0,1.0,51,0.00,,,0.01,Wunderground v.1.15,2013-08-15 18:00:00,
2013-08-15 13:10:00,74.6,54.7,30.18,SSE,161,3.0,3.0,50,0.00,,,0.01,Wunderground v.1.15,2013-08-15 18:10:00,
2013-08-15 13:15:00,74.8,55.5,30.18,SSE,153,2.0,5.0,51,0.00,,,0.01,Wunderground v.1.15,2013-08-15 18:15:00,
2013-08-15 13:30:00,74.2,54.9,30.18,SE,144,2.0,2.0,51,0.00,,,0.01,Wunderground v.1.15,2013-08-15 18:30:00,
2013-08-15 13:35:00,73.9,55.2,30.18,SSE,150,1.0,2.0,52,0.00,,,0.01,Wunderground v.1.15,2013-08-15 18:35:00,
2013-08-15 13:40:00,73.8,57.1,30.18,SSE,150,1.0,1.0,56,0.00,,,0.01,Wunderground v.1.15,2013-08-15 18:40:00,
2013-08-15 13:45:00,74.1,56.4,30.18,SE,139,1.0,1.0,54,0.00,,,0.01,Wunderground v.1.15,2013-08-15 18:45:00,
2013-08-15 13:50:00,75.0,57.7,30.18,SE,140,0.0,0.0,55,0.00,,,0.01,Wunderground v.1.15,2013-08-15 18:50:00,
2013-08-15 13:55:00,75.5,56.6,30.18,NE,40,1.0,1.0,52,0.00,,,0.01,Wunderground v.1.15,2013-08-15 18:55:00,
2013-08-15 14:05:00,74.5,55.7,30.17,East,85,1.0,1.0,52,0.00,,,0.01,Wunderground v.1.15,2013-08-15 19:05:00,
2013-08-15 14:10:00,74.7,55.4,30.17,East,89,0.0,0.0,51,0.00,,,0.01,Wunderground v.1.15,2013-08-15 19:10:00,
2013-08-15 14:15:00,75.1,55.2,30.17,East,89,0.0,0.0,50,0.00,,,0.01,Wunderground v.1.15,2013-08-15 19:15:00,
2013-08-15 14:20:00,75.0,55.1,30.17,East,93,1.0,1.0,50,0.00,,,0.01,Wunderground v.1.15,2013-08-15 19:20:00,
2013-08-15 14:25:00,74.5,54.1,30.17,ESE,110,2.0,2.0,49,0.00,,,0.01,Wunderground v.1.15,2013-08-15 19:25:00,
2013-08-15 14:35:00,74.0,54.2,30.16,SE,140,1.0,3.0,50,0.00,,,0.01,Wunderground v.1.15,2013-08-15 19:35:00,
2013-08-15 14:40:00,74.0,55.3,30.16,ESE,107,1.0,1.0,52,0.00,,,0.01,Wunderground v.1.15,2013-08-15 19:40:00,
2013-08-15 14:45:00,73.8,55.1,30.16,East,81,1.0,1.0,52,0.00,,,0.01,Wunderground v.1.15,2013-08-15 19:45:00,
2013-08-15 14:50:00,73.5,55.8,30.16,East,79,1.0,3.0,54,0.00,,,0.01,Wunderground v.1.15,2013-08-15 19:50:00,
2013-08-15 14:55:00,73.3,54.1,30.16,East,84,0.0,3.0,51,0.00,,,0.01,Wunderground v.1.15,2013-08-15 19:55:00,
2013-08-15 15:05:00,73.9,55.2,30.16,East,84,0.0,0.0,52,0.00,,,0.01,Wunderground v.1.15,2013-08-15 20:05:00,
2013-08-15 15:10:00,74.2,56.5,30.15,East,81,1.0,3.0,54,0.00,,,0.01,Wunderground v.1.15,2013-08-15 20:10:00,
2013-08-15 15:20:00,75.1,56.8,30.15,ENE,77,0.0,0.0,53,0.00,,,0.01,Wunderground v.1.15,2013-08-15 20:20:00,
2013-08-15 15:25:00,75.5,56.1,30.15,NE,42,1.0,1.0,51,0.00,,,0.01,Wunderground v.1.15,2013-08-15 20:25:00,
2013-08-15 15:35:00,76.5,57.6,30.15,NE,40,0.0,5.0,52,0.00,,,0.01,Wunderground v.1.15,2013-08-15 20:35:00,
2013-08-15 15:45:00,75.8,55.3,30.15,SE,132,2.0,3.0,49,0.00,,,0.01,Wunderground v.1.15,2013-08-15 20:45:00,
2013-08-15 15:50:00,75.8,55.8,30.15,South,186,1.0,1.0,50,0.00,,,0.01,Wunderground v.1.15,2013-08-15 20:50:00,
2013-08-15 15:55:00,75.9,55.9,30.15,SE,135,1.0,1.0,50,0.00,,,0.01,Wunderground v.1.15,2013-08-15 20:55:00,
2013-08-15 16:05:00,76.6,56.0,30.14,South,175,1.0,1.0,49,0.00,,,0.01,Wunderground v.1.15,2013-08-15 21:05:00,
2013-08-15 16:15:00,76.1,53.2,30.14,ESE,123,2.0,2.0,45,0.00,,,0.01,Wunderground v.1.15,2013-08-15 21:15:00,
2013-08-15 16:20:00,76.0,55.5,30.14,NNE,32,1.0,1.0,49,0.00,,,0.01,Wunderground v.1.15,2013-08-15 21:20:00,
2013-08-15 16:25:00,76.0,55.5,30.14,SE,142,1.0,4.0,49,0.00,,,0.01,Wunderground v.1.15,2013-08-15 21:25:00,
2013-08-15 16:35:00,75.6,55.1,30.14,SE,134,1.0,1.0,49,0.00,,,0.01,Wunderground v.1.15,2013-08-15 21:35:00,
2013-08-15 16:45:00,75.2,55.8,30.14,SE,143,1.0,1.0,51,0.00,,,0.01,Wunderground v.1.15,2013-08-15 21:45:00,
2013-08-15 16:50:00,75.1,55.2,30.14,SE,146,1.0,1.0,50,0.00,,,0.01,Wunderground v.1.15,2013-08-15 21:50:00,
2013-08-15 17:05:00,74.9,55.0,30.13,South,174,1.0,1.0,50,0.00,,,0.01,Wunderground v.1.15,2013-08-15 22:05:00,
2013-08-15 17:10:00,74.9,53.9,30.14,South,174,1.0,1.0,48,0.00,,,0.01,Wunderground v.1.15,2013-08-15 22:10:00,
2013-08-15 17:15:00,75.1,54.6,30.14,South,174,0.0,1.0,49,0.00,,,0.01,Wunderground v.1.15,2013-08-15 22:15:00,
2013-08-15 17:25:00,74.5,54.6,30.14,East,101,1.0,1.0,50,0.00,,,0.01,Wunderground v.1.15,2013-08-15 22:25:00,
2013-08-15 17:30:00,74.3,55.5,30.14,East,101,0.0,0.0,52,0.00,,,0.01,Wunderground v.1.15,2013-08-15 22:30:00,
2013-08-15 17:35:00,74.0,56.8,30.14,East,101,0.0,0.0,55,0.00,,,0.01,Wunderground v.1.15,2013-08-15 22:35:00,
2013-08-15 17:40:00,73.8,56.6,30.14,East,101,0.0,0.0,55,0.00,,,0.01,Wunderground v.1.15,2013-08-15 22:40:00,
2013-08-15 17:50:00,72.9,54.8,30.14,East,101,0.0,0.0,53,0.00,,,0.01,Wunderground v.1.15,2013-08-15 22:50:00,
2013-08-15 17:55:00,72.6,55.0,30.14,East,101,0.0,0.0,54,0.00,,,0.01,Wunderground v.1.15,2013-08-15 22:55:00,
2013-08-15 18:00:00,72.2,54.6,30.14,East,101,0.0,2.0,54,0.00,,,0.01,Wunderground v.1.15,2013-08-15 23:00:00,
2013-08-15 18:05:00,72.1,56.5,30.14,East,101,0.0,2.0,58,0.00,,,0.01,Wunderground v.1.15,2013-08-15 23:05:00,
2013-08-15 18:10:00,72.1,56.5,30.14,East,101,0.0,0.0,58,0.00,,,0.01,Wunderground v.1.15,2013-08-15 23:10:00,
2013-08-15 18:15:00,72.1,57.4,30.14,East,101,0.0,0.0,60,0.00,,,0.01,Wunderground v.1.15,2013-08-15 23:15:00,
2013-08-15 18:20:00,72.1,58.4,30.14,East,101,0.0,0.0,62,0.00,,,0.01,Wunderground v.1.15,2013-08-15 23:20:00,
2013-08-15 18:25:00,72.0,57.8,30.14,East,101,0.0,0.0,61,0.00,,,0.01,Wunderground v.1.15,2013-08-15 23:25:00,
2013-08-15 18:35:00,72.1,61.0,30.13,East,101,0.0,0.0,68,0.00,,,0.01,Wunderground v.1.15,2013-08-15 23:35:00,
2013-08-15 18:40:00,72.1,60.1,30.14,East,101,0.0,0.0,66,0.00,,,0.01,Wunderground v.1.15,2013-08-15 23:40:00,
2013-08-15 18:45:00,72.1,61.4,30.14,East,101,0.0,0.0,69,0.00,,,0.01,Wunderground v.1.15,2013-08-15 23:45:00,
2013-08-15 18:50:00,71.8,60.7,30.14,East,101,0.0,0.0,68,0.00,,,0.01,Wunderground v.1.15,2013-08-15 23:50:00,
2013-08-15 18:55:00,71.5,60.8,30.14,East,101,0.0,0.0,69,0.00,,,0.01,Wunderground v.1.15,2013-08-15 23:55:00,
2013-08-15 19:05:00,70.8,60.5,30.14,East,101,0.0,0.0,70,0.00,,,0.01,Wunderground v.1.15,2013-08-16 00:05:00,
2013-08-15 19:10:00,70.3,60.4,30.14,East,101,0.0,0.0,71,0.00,,,0.01,Wunderground v.1.15,2013-08-16 00:10:00,
2013-08-15 19:15:00,69.8,60.4,30.14,East,101,0.0,0.0,72,0.00,,,0.01,Wunderground v.1.15,2013-08-16 00:15:00,
2013-08-15 19:20:00,69.2,59.8,30.14,East,101,0.0,0.0,72,0.00,,,0.01,Wunderground v.1.15,2013-08-16 00:20:00,
2013-08-15 19:25:00,68.7,59.7,30.14,East,101,0.0,0.0,73,0.00,,,0.01,Wunderground v.1.15,2013-08-16 00:25:00,
2013-08-15 19:35:00,67.8,59.2,30.14,East,101,0.0,0.0,74,0.00,,,0.01,Wunderground v.1.15,2013-08-16 00:35:00,
2013-08-15 19:40:00,67.4,59.6,30.14,East,101,0.0,0.0,76,0.00,,,0.01,Wunderground v.1.15,2013-08-16 00:40:00,
2013-08-15 19:45:00,66.9,59.5,30.14,East,101,0.0,0.0,77,0.00,,,0.01,Wunderground v.1.15,2013-08-16 00:45:00,
2013-08-15 19:50:00,66.5,59.4,30.14,East,101,0.0,0.0,78,0.00,,,0.01,Wunderground v.1.15,2013-08-16 00:50:00,
2013-08-15 19:55:00,66.1,59.4,30.14,East,101,0.0,0.0,79,0.00,,,0.01,Wunderground v.1.15,2013-08-16 00:55:00,
2013-08-15 20:00:00,65.7,59.7,30.14,East,101,0.0,0.0,81,0.00,,,0.01,Wunderground v.1.15,2013-08-16 01:00:00,
2013-08-15 20:10:00,65.1,59.1,30.14,East,101,0.0,0.0,81,0.00,,,0.01,Wunderground v.1.15,2013-08-16 01:10:00,
2013-08-15 20:20:00,64.6,59.3,30.14,East,101,0.0,0.0,83,0.00,,,0.01,Wunderground v.1.15,2013-08-16 01:20:00,
2013-08-15 20:25:00,64.3,59.0,30.14,East,101,0.0,0.0,83,0.00,,,0.01,Wunderground v.1.15,2013-08-16 01:25:00,
2013-08-15 20:40:00,63.7,59.1,30.14,East,101,0.0,0.0,85,0.00,,,0.01,Wunderground v.1.15,2013-08-16 01:40:00,
2013-08-15 20:45:00,63.4,59.1,30.14,East,101,0.0,0.0,86,0.00,,,0.01,Wunderground v.1.15,2013-08-16 01:45:00,
2013-08-15 20:50:00,63.2,58.9,30.14,East,101,0.0,0.0,86,0.00,,,0.01,Wunderground v.1.15,2013-08-16 01:50:00,
2013-08-15 20:55:00,63.0,59.1,30.15,East,101,0.0,0.0,87,0.00,,,0.01,Wunderground v.1.15,2013-08-16 01:55:00,
2013-08-15 21:00:00,62.9,59.3,30.15,East,101,0.0,0.0,88,0.00,,,0.01,Wunderground v.1.15,2013-08-16 02:00:00,
2013-08-15 21:05:00,62.7,59.1,30.15,East,101,0.0,0.0,88,0.00,,,0.01,Wunderground v.1.15,2013-08-16 02:05:00,
2013-08-15 21:15:00,62.5,59.2,30.15,East,101,0.0,0.0,89,0.00,,,0.01,Wunderground v.1.15,2013-08-16 02:15:00,
2013-08-15 21:20:00,62.3,59.0,30.15,East,101,0.0,0.0,89,0.00,,,0.01,Wunderground v.1.15,2013-08-16 02:20:00,
2013-08-15 21:25:00,62.1,59.1,30.16,East,101,0.0,0.0,90,0.00,,,0.01,Wunderground v.1.15,2013-08-16 02:25:00,
2013-08-15 21:30:00,62.0,59.3,30.16,East,101,0.0,0.0,91,0.00,,,0.01,Wunderground v.1.15,2013-08-16 02:30:00,
2013-08-15 21:35:00,61.8,58.8,30.16,East,101,0.0,0.0,90,0.00,,,0.01,Wunderground v.1.15,2013-08-16 02:35:00,
2013-08-15 21:45:00,61.5,58.8,30.16,East,101,0.0,0.0,91,0.00,,,0.01,Wunderground v.1.15,2013-08-16 02:45:00,
2013-08-15 21:50:00,61.4,58.7,30.16,East,101,0.0,0.0,91,0.00,,,0.01,Wunderground v.1.15,2013-08-16 02:50:00,
2013-08-15 21:55:00,61.2,58.6,30.16,East,101,0.0,0.0,91,0.00,,,0.01,Wunderground v.1.15,2013-08-16 02:55:00,
2013-08-15 22:00:00,61.1,58.5,30.16,East,101,0.0,0.0,91,0.00,,,0.01,Wunderground v.1.15,2013-08-16 03:00:00,
2013-08-15 22:05:00,60.9,58.6,30.16,East,101,0.0,0.0,92,0.00,,,0.01,Wunderground v.1.15,2013-08-16 03:05:00,
2013-08-15 22:15:00,60.7,58.4,30.17,East,101,0.0,0.0,92,0.00,,,0.01,Wunderground v.1.15,2013-08-16 03:15:00,
2013-08-15 22:20:00,60.6,58.3,30.16,East,101,0.0,0.0,92,0.00,,,0.01,Wunderground v.1.15,2013-08-16 03:20:00,
2013-08-15 22:25:00,60.4,58.1,30.16,East,101,0.0,0.0,92,0.00,,,0.01,Wunderground v.1.15,2013-08-16 03:25:00,
2013-08-15 22:30:00,60.4,58.4,30.16,East,101,0.0,0.0,93,0.00,,,0.01,Wunderground v.1.15,2013-08-16 03:30:00,
2013-08-15 22:35:00,60.3,58.3,30.17,East,101,0.0,0.0,93,0.00,,,0.01,Wunderground v.1.15,2013-08-16 03:35:00,
2013-08-15 22:40:00,60.2,58.2,30.17,East,101,0.0,0.0,93,0.00,,,0.01,Wunderground v.1.15,2013-08-16 03:40:00,
2013-08-15 22:45:00,60.1,58.1,30.17,East,101,0.0,0.0,93,0.00,,,0.01,Wunderground v.1.15,2013-08-16 03:45:00,
2013-08-15 22:50:00,60.1,58.4,30.17,East,101,0.0,0.0,94,0.00,,,0.01,Wunderground v.1.15,2013-08-16 03:50:00,
2013-08-15 22:55:00,60.0,58.3,30.17,East,101,0.0,0.0,94,0.00,,,0.01,Wunderground v.1.15,2013-08-16 03:55:00,
2013-08-15 23:00:00,60.0,58.3,30.17,East,101,0.0,0.0,94,0.00,,,0.01,Wunderground v.1.15,2013-08-16 04:00:00,
2013-08-15 23:05:00,59.9,58.2,30.17,East,101,0.0,0.0,94,0.00,,,0.01,Wunderground v.1.15,2013-08-16 04:05:00,
2013-08-15 23:10:00,59.8,58.1,30.17,East,101,0.0,0.0,94,0.00,,,0.01,Wunderground v.1.15,2013-08-16 04:10:00,
2013-08-15 23:15:00,59.8,58.1,30.17,East,101,0.0,0.0,94,0.00,,,0.01,Wunderground v.1.15,2013-08-16 04:15:00,
2013-08-15 23:20:00,59.9,58.2,30.18,East,101,0.0,0.0,94,0.00,,,0.01,Wunderground v.1.15,2013-08-16 04:20:00,
2013-08-15 23:25:00,59.9,58.2,30.18,East,101,0.0,0.0,94,0.00,,,0.01,Wunderground v.1.15,2013-08-16 04:25:00,
2013-08-15 23:30:00,59.8,58.1,30.18,East,101,0.0,0.0,94,0.00,,,0.01,Wunderground v.1.15,2013-08-16 04:30:00,
2013-08-15 23:35:00,59.8,58.1,30.18,East,101,0.0,0.0,94,0.00,,,0.01,Wunderground v.1.15,2013-08-16 04:35:00,
2013-08-15 23:40:00,59.7,58.3,30.18,East,101,0.0,0.0,95,0.00,,,0.01,Wunderground v.1.15,2013-08-16 04:40:00,
2013-08-15 23:45:00,59.7,58.3,30.18,East,101,0.0,0.0,95,0.00,,,0.01,Wunderground v.1.15,2013-08-16 04:45:00,
2013-08-15 23:55:00,59.6,58.2,30.17,East,101,0.0,0.0,95,0.00,,,0.01,Wunderground v.1.15,2013-08-16 04:55:00,